createdAt,value
2024-05-09T00:00:04.913Z,17.92
2024-05-09T00:02:08.562Z,17.98
2024-05-09T00:04:10.888Z,15.85
2024-05-09T00:06:13.545Z,16.23
2024-05-09T00:08:16.645Z,20.65
2024-05-09T00:10:25.556Z,19.10
2024-05-09T00:12:35.394Z,15.02
2024-05-09T00:14:37.676Z,14.85
2024-05-09T00:16:39.742Z,16.33
2024-05-09T00:18:42.100Z,15.88
2024-05-09T00:20:44.433Z,16.17
2024-05-09T00:22:46.742Z,16.33
2024-05-09T00:24:48.969Z,16.30
2024-05-09T00:26:51.136Z,16.80
2024-05-09T00:28:53.323Z,15.60
2024-05-09T00:30:55.488Z,16.58
2024-05-09T00:32:57.890Z,15.13
2024-05-09T00:35:00.301Z,18.48
2024-05-09T00:37:02.513Z,16.67
2024-05-09T00:39:04.654Z,15.45
2024-05-09T00:41:06.868Z,14.15
2024-05-09T00:43:10.391Z,17.80
2024-05-09T00:45:13.233Z,19.45
2024-05-09T00:47:15.669Z,15.85
2024-05-09T00:49:18.005Z,13.30
2024-05-09T00:51:20.429Z,20.02
2024-05-09T00:53:22.756Z,14.85
2024-05-09T00:55:25.603Z,16.27
2024-05-09T00:57:28.299Z,15.02
2024-05-09T00:59:31.171Z,15.60
2024-05-09T01:01:33.665Z,12.38
2024-05-09T01:03:36.676Z,17.75
2024-05-09T01:05:39.716Z,19.40
2024-05-09T01:07:43.138Z,15.73
2024-05-09T01:09:45.264Z,17.75
2024-05-09T01:11:47.646Z,15.45
2024-05-09T01:13:50.021Z,15.18
2024-05-09T01:15:55.426Z,17.17
2024-05-09T01:17:58.527Z,13.90
2024-05-09T01:20:01.030Z,12.88
2024-05-09T01:22:04.665Z,13.75
2024-05-09T01:24:06.894Z,17.42
2024-05-09T01:26:09.025Z,16.48
2024-05-09T01:28:11.358Z,19.63
2024-05-09T01:30:17.428Z,14.02
2024-05-09T01:32:23.723Z,15.20
2024-05-09T01:34:26.785Z,15.90
2024-05-09T01:36:29.012Z,13.63
2024-05-09T01:38:31.246Z,14.93
2024-05-09T01:40:38.605Z,17.88
2024-05-09T01:42:42.530Z,17.55
2024-05-09T01:44:44.639Z,16.95
2024-05-09T01:46:46.883Z,14.20
2024-05-09T01:48:49.088Z,20.73
2024-05-09T01:50:51.614Z,14.02
2024-05-09T01:52:53.843Z,15.88
2024-05-09T01:54:56.024Z,14.63
2024-05-09T01:56:58.160Z,15.43
2024-05-09T01:59:02.931Z,15.25
2024-05-09T02:01:05.362Z,18.02
2024-05-09T02:03:13.561Z,16.67
2024-05-09T02:05:18.872Z,14.75
2024-05-09T02:07:21.120Z,13.68
2024-05-09T02:09:23.207Z,15.95
2024-05-09T02:11:25.560Z,16.08
2024-05-09T02:13:27.842Z,14.52
2024-05-09T02:15:29.946Z,20.15
2024-05-09T02:17:32.105Z,17.50
2024-05-09T02:19:34.464Z,12.90
2024-05-09T02:21:37.892Z,17.27
2024-05-09T02:23:40.020Z,14.80
2024-05-09T02:25:42.407Z,13.77
2024-05-09T02:27:44.532Z,16.75
2024-05-09T02:29:46.607Z,12.88
2024-05-09T02:31:48.959Z,15.63
2024-05-09T02:33:52.108Z,12.45
2024-05-09T02:35:54.556Z,13.35
2024-05-09T02:37:56.717Z,13.90
2024-05-09T02:39:58.859Z,14.80
2024-05-09T02:42:00.972Z,13.93
2024-05-09T02:44:03.293Z,16.23
2024-05-09T02:46:07.107Z,14.10
2024-05-09T02:48:13.633Z,11.77
2024-05-09T02:50:25.954Z,13.38
2024-05-09T02:52:32.325Z,12.70
2024-05-09T02:54:34.529Z,13.00
2024-05-09T02:56:36.770Z,11.63
2024-05-09T02:58:38.946Z,13.27
2024-05-09T03:00:42.958Z,12.43
2024-05-09T03:02:45.625Z,12.73
2024-05-09T03:04:48.054Z,14.57
2024-05-09T03:06:50.211Z,18.10
2024-05-09T03:08:52.453Z,17.13
2024-05-09T03:10:56.839Z,16.05
2024-05-09T03:12:59.170Z,17.15
2024-05-09T03:15:01.354Z,15.00
2024-05-09T03:17:03.796Z,13.70
2024-05-09T03:19:06.166Z,12.95
2024-05-09T03:21:08.907Z,18.75
2024-05-09T03:23:11.271Z,14.73
2024-05-09T03:25:13.562Z,17.23
2024-05-09T03:27:15.671Z,12.93
2024-05-09T03:29:17.866Z,16.60
2024-05-09T03:31:20.001Z,15.15
2024-05-09T03:33:22.540Z,16.20
2024-05-09T03:35:25.000Z,16.90
2024-05-09T03:37:27.494Z,15.00
2024-05-09T03:39:29.696Z,14.90
2024-05-09T03:41:31.939Z,18.50
2024-05-09T03:43:34.187Z,18.05
2024-05-09T03:45:36.287Z,16.67
2024-05-09T03:47:38.531Z,19.83
2024-05-09T03:49:40.827Z,25.27
2024-05-09T03:51:43.098Z,17.15
2024-05-09T03:53:45.251Z,21.70
2024-05-09T03:55:47.482Z,22.42
2024-05-09T03:57:49.713Z,17.60
2024-05-09T03:59:51.856Z,16.73
2024-05-09T04:01:55.108Z,17.70
2024-05-09T04:03:57.280Z,15.07
2024-05-09T04:05:59.589Z,17.20
2024-05-09T04:08:02.022Z,16.52
2024-05-09T04:10:06.802Z,18.13
2024-05-09T04:12:11.079Z,18.25
2024-05-09T04:14:13.380Z,18.73
2024-05-09T04:16:15.610Z,15.88
2024-05-09T04:18:18.506Z,15.07
2024-05-09T04:20:32.382Z,15.88
2024-05-09T04:22:39.963Z,16.15
2024-05-09T04:24:42.172Z,17.23
2024-05-09T04:26:44.321Z,16.92
2024-05-09T04:28:46.710Z,14.60
2024-05-09T04:30:48.823Z,24.35
2024-05-09T04:32:51.273Z,14.32
2024-05-09T04:34:53.439Z,14.70
2024-05-09T04:36:55.563Z,13.90
2024-05-09T04:38:57.583Z,13.90
2024-05-09T04:40:59.856Z,13.70
2024-05-09T04:43:02.148Z,12.85
2024-05-09T04:45:04.627Z,14.23
2024-05-09T04:47:06.948Z,11.68
2024-05-09T04:49:09.284Z,12.98
2024-05-09T04:51:11.518Z,12.57
2024-05-09T04:53:17.084Z,10.10
2024-05-09T04:55:19.405Z,10.25
2024-05-09T04:57:21.743Z,9.95
2024-05-09T04:59:24.243Z,12.93
2024-05-09T05:01:26.662Z,10.18
2024-05-09T05:03:29.306Z,10.98
2024-05-09T05:05:31.663Z,9.45
2024-05-09T05:07:34.121Z,8.70
2024-05-09T05:09:36.311Z,7.10
2024-05-09T05:11:38.713Z,13.57
2024-05-09T05:13:41.703Z,12.25
2024-05-09T05:15:44.346Z,9.25
2024-05-09T05:17:46.710Z,11.23
2024-05-09T05:19:49.065Z,9.93
2024-05-09T05:21:51.374Z,13.63
2024-05-09T05:23:53.578Z,7.22
2024-05-09T05:25:56.000Z,10.00
2024-05-09T05:27:58.408Z,9.20
2024-05-09T05:30:00.507Z,9.60
2024-05-09T05:32:03.082Z,6.20
2024-05-09T05:34:05.275Z,11.05
2024-05-09T05:36:08.087Z,9.88
2024-05-09T05:38:10.777Z,9.13
2024-05-09T05:40:20.680Z,13.75
2024-05-09T05:42:27.192Z,10.00
2024-05-09T05:44:29.435Z,9.95
2024-05-09T05:46:31.671Z,9.18
2024-05-09T05:48:34.055Z,13.55
2024-05-09T05:50:38.180Z,9.10
2024-05-09T05:52:40.941Z,9.77
2024-05-09T05:54:43.107Z,10.77
2024-05-09T05:56:45.379Z,8.45
2024-05-09T05:58:47.573Z,8.57
2024-05-09T06:00:53.431Z,9.27
2024-05-09T06:02:56.076Z,9.65
2024-05-09T06:04:59.691Z,7.68
2024-05-09T06:07:01.932Z,6.88
2024-05-09T06:09:05.879Z,11.38
2024-05-09T06:11:08.108Z,7.47
2024-05-09T06:13:11.759Z,8.05
2024-05-09T06:15:14.412Z,8.05
2024-05-09T06:17:16.799Z,6.22
2024-05-09T06:19:19.994Z,9.40
2024-05-09T06:21:22.168Z,10.30
2024-05-09T06:23:24.443Z,7.80
2024-05-09T06:25:27.130Z,10.02
2024-05-09T06:27:29.353Z,5.53
2024-05-09T06:29:31.790Z,8.43
2024-05-09T06:31:40.442Z,9.63
2024-05-09T06:33:42.724Z,13.30
2024-05-09T06:35:46.323Z,7.65
2024-05-09T06:37:48.713Z,5.78
2024-05-09T06:39:51.086Z,9.07
2024-05-09T06:41:56.678Z,6.70
2024-05-09T06:44:01.572Z,6.68
2024-05-09T06:46:04.475Z,5.28
2024-05-09T06:48:07.835Z,6.45
2024-05-09T06:50:19.606Z,7.07
2024-05-09T06:52:25.677Z,10.02
2024-05-09T06:54:27.935Z,6.82
2024-05-09T06:56:30.239Z,6.97
2024-05-09T06:58:32.613Z,6.97
2024-05-09T07:00:39.623Z,6.60
2024-05-09T07:02:43.539Z,7.75
2024-05-09T07:04:46.087Z,7.45
2024-05-09T07:06:48.383Z,6.93
2024-05-09T07:08:52.396Z,5.43
2024-05-09T07:10:55.076Z,10.40
2024-05-09T07:12:57.279Z,8.88
2024-05-09T07:14:59.443Z,6.60
2024-05-09T07:17:01.845Z,7.88
2024-05-09T07:19:04.587Z,8.45
2024-05-09T07:21:06.950Z,6.15
2024-05-09T07:23:10.312Z,10.35
2024-05-09T07:25:12.603Z,6.85
2024-05-09T07:27:14.792Z,7.68
2024-05-09T07:29:17.256Z,7.60
2024-05-09T07:31:19.551Z,7.72
2024-05-09T07:33:23.967Z,14.05
2024-05-09T07:35:27.072Z,6.13
2024-05-09T07:37:29.342Z,6.85
2024-05-09T07:39:31.538Z,7.03
2024-05-09T07:41:33.761Z,7.03
2024-05-09T07:43:35.927Z,5.75
2024-05-09T07:45:48.516Z,5.70
2024-05-09T07:49:44.131Z,6.68
2024-05-09T07:53:30.189Z,10.85
2024-05-09T07:54:48.244Z,5.85
2024-05-09T07:56:50.507Z,6.70
2024-05-09T07:58:56.482Z,6.82
2024-05-09T08:00:58.788Z,4.30
2024-05-09T08:03:01.197Z,7.30
2024-05-09T08:05:03.560Z,6.18
2024-05-09T08:07:05.903Z,5.97
2024-05-09T08:09:13.596Z,5.93
2024-05-09T08:11:20.632Z,7.38
2024-05-09T08:13:23.297Z,6.18
2024-05-09T08:15:25.828Z,8.98
2024-05-09T08:17:29.448Z,5.25
2024-05-09T08:19:32.141Z,6.35
2024-05-09T08:21:40.579Z,5.60
2024-05-09T08:23:42.988Z,7.07
2024-05-09T08:25:45.112Z,7.88
2024-05-09T08:27:47.219Z,6.57
2024-05-09T08:29:49.405Z,6.03
2024-05-09T08:31:55.999Z,9.30
2024-05-09T08:33:58.292Z,4.47
2024-05-09T08:36:00.635Z,4.30
2024-05-09T08:38:07.494Z,6.22
2024-05-09T08:40:23.595Z,5.20
2024-05-09T08:42:35.986Z,6.10
2024-05-09T08:44:38.211Z,8.70
2024-05-09T08:46:41.663Z,6.90
2024-05-09T08:48:45.872Z,5.22
2024-05-09T08:50:48.180Z,6.80
2024-05-09T08:52:50.248Z,8.95
2024-05-09T08:54:54.960Z,6.03
2024-05-09T08:56:57.965Z,8.55
2024-05-09T08:59:02.449Z,5.18
2024-05-09T09:01:05.328Z,5.38
2024-05-09T09:03:10.247Z,4.82
2024-05-09T09:05:17.319Z,5.13
2024-05-09T09:07:19.815Z,7.07
2024-05-09T09:09:22.065Z,6.78
2024-05-09T09:11:24.331Z,6.63
2024-05-09T09:13:27.353Z,5.50
2024-05-09T09:15:29.857Z,4.82
2024-05-09T09:17:32.080Z,5.75
2024-05-09T09:19:35.547Z,5.45
2024-05-09T09:21:37.837Z,6.57
2024-05-09T09:23:40.117Z,5.80
2024-05-09T09:25:42.460Z,7.00
2024-05-09T09:27:44.581Z,8.98
2024-05-09T09:29:47.562Z,4.80
2024-05-09T09:32:11.477Z,5.45
2024-05-09T09:34:13.773Z,6.65
2024-05-09T09:36:18.564Z,7.00
2024-05-09T09:38:23.488Z,7.07
2024-05-09T09:40:32.287Z,9.52
2024-05-09T09:42:37.908Z,5.50
2024-05-09T09:44:42.285Z,5.47
2024-05-09T09:46:47.305Z,5.45
2024-05-09T09:48:49.681Z,9.15
2024-05-09T09:50:53.002Z,11.10
2024-05-09T09:52:55.672Z,10.25
2024-05-09T09:54:58.202Z,8.15
2024-05-09T09:57:01.252Z,5.93
2024-05-09T09:59:04.872Z,6.03
2024-05-09T10:01:07.061Z,5.72
2024-05-09T10:03:09.751Z,7.70
2024-05-09T10:05:12.316Z,7.05
2024-05-09T10:07:15.283Z,6.22
2024-05-09T10:09:18.371Z,5.55
2024-05-09T10:11:24.008Z,6.28
2024-05-09T10:13:35.068Z,8.57
2024-05-09T10:15:54.532Z,9.20
2024-05-09T10:18:15.611Z,5.93
2024-05-09T10:20:22.173Z,10.98
2024-05-09T10:22:31.020Z,7.68
2024-05-09T10:24:53.354Z,6.63
2024-05-09T10:26:56.438Z,6.30
2024-05-09T10:28:59.235Z,9.05
2024-05-09T10:31:13.671Z,10.38
2024-05-09T10:33:20.304Z,10.27
2024-05-09T10:35:25.467Z,8.75
2024-05-09T10:37:30.984Z,7.78
2024-05-09T10:39:39.299Z,8.50
2024-05-09T10:41:41.471Z,11.02
2024-05-09T10:43:43.725Z,8.90
2024-05-09T10:45:45.882Z,8.25
2024-05-09T10:47:48.098Z,5.68
2024-05-09T10:49:50.619Z,10.50
2024-05-09T10:51:53.433Z,7.38
2024-05-09T10:53:57.172Z,6.70
2024-05-09T10:56:00.874Z,8.68
2024-05-09T10:58:02.962Z,4.45
2024-05-09T11:00:10.081Z,6.43
2024-05-09T11:02:17.299Z,7.22
2024-05-09T11:04:20.209Z,12.43
2024-05-09T11:06:23.676Z,12.60
2024-05-09T11:08:25.976Z,7.65
2024-05-09T11:10:33.724Z,7.70
2024-05-09T11:12:36.689Z,9.02
2024-05-09T11:14:39.138Z,6.57
2024-05-09T11:16:41.396Z,7.78
2024-05-09T11:18:43.954Z,4.75
2024-05-09T11:20:46.454Z,4.38
2024-05-09T11:22:48.681Z,5.68
2024-05-09T11:24:50.852Z,6.78
2024-05-09T11:26:53.009Z,5.00
2024-05-09T11:28:55.174Z,5.63
2024-05-09T11:31:09.085Z,6.07
2024-05-09T11:33:14.642Z,5.88
2024-05-09T11:35:16.846Z,6.60
2024-05-09T11:37:19.294Z,7.28
2024-05-09T11:39:21.465Z,5.93
2024-05-09T11:41:23.981Z,8.45
2024-05-09T11:43:26.223Z,11.10
2024-05-09T11:45:28.463Z,8.23
2024-05-09T11:47:30.850Z,8.45
2024-05-09T11:49:33.272Z,7.47
2024-05-09T11:51:35.584Z,6.57
2024-05-09T11:53:37.868Z,6.07
2024-05-09T11:55:39.908Z,7.40
2024-05-09T11:57:42.106Z,8.52
2024-05-09T11:59:44.575Z,5.47
2024-05-09T12:01:46.875Z,7.93
2024-05-09T12:03:49.776Z,7.47
2024-05-09T12:05:52.090Z,8.80
2024-05-09T12:07:54.965Z,7.40
2024-05-09T12:09:57.056Z,5.60
2024-05-09T12:11:59.210Z,6.65
2024-05-09T12:14:01.542Z,6.80
2024-05-09T12:16:03.969Z,7.55
2024-05-09T12:18:08.016Z,7.22
2024-05-09T12:20:20.917Z,3.83
2024-05-09T12:22:27.858Z,5.85
2024-05-09T12:24:30.682Z,6.75
2024-05-09T12:26:32.793Z,6.95
2024-05-09T12:28:34.861Z,7.38
2024-05-09T12:30:41.615Z,5.57
2024-05-09T12:32:46.292Z,5.00
2024-05-09T12:34:48.556Z,7.57
2024-05-09T12:36:50.660Z,6.10
2024-05-09T12:38:52.962Z,6.93
2024-05-09T12:40:55.231Z,5.28
2024-05-09T12:42:57.568Z,7.93
2024-05-09T12:44:59.745Z,6.68
2024-05-09T12:47:01.857Z,6.65
2024-05-09T12:49:04.711Z,8.77
2024-05-09T12:51:07.165Z,8.02
2024-05-09T12:53:09.461Z,4.97
2024-05-09T12:55:11.752Z,5.32
2024-05-09T12:57:13.974Z,7.20
2024-05-09T12:59:16.128Z,3.97
2024-05-09T13:01:18.278Z,10.18
2024-05-09T13:03:20.675Z,6.75
2024-05-09T13:05:23.097Z,3.05
2024-05-09T13:07:25.853Z,8.13
2024-05-09T13:09:28.031Z,5.85
2024-05-09T13:11:30.438Z,7.15
2024-05-09T13:13:32.617Z,8.10
2024-05-09T13:15:35.056Z,5.55
2024-05-09T13:17:37.481Z,3.70
2024-05-09T13:19:39.564Z,5.38
2024-05-09T13:21:41.687Z,4.25
2024-05-09T13:23:44.471Z,4.47
2024-05-09T13:25:46.837Z,5.15
2024-05-09T13:27:49.042Z,7.30
2024-05-09T13:29:51.325Z,4.47
2024-05-09T13:31:53.435Z,4.93
2024-05-09T13:33:55.636Z,7.60
2024-05-09T13:35:58.018Z,8.48
2024-05-09T13:38:02.177Z,10.57
2024-05-09T13:40:07.090Z,5.53
2024-05-09T13:44:12.244Z,9.35
2024-05-09T13:46:14.631Z,5.65
2024-05-09T13:48:17.519Z,9.07
2024-05-09T13:50:33.304Z,5.90
2024-05-09T13:52:38.164Z,10.35
2024-05-09T13:54:40.209Z,5.40
2024-05-09T13:56:42.442Z,5.45
2024-05-09T13:58:44.644Z,8.70
2024-05-09T14:00:48.985Z,5.70
2024-05-09T14:02:51.773Z,8.52
2024-05-09T14:04:54.595Z,6.95
2024-05-09T14:06:56.881Z,5.90
2024-05-09T14:08:59.227Z,5.97
2024-05-09T14:11:01.512Z,8.82
2024-05-09T14:13:03.775Z,7.80
2024-05-09T14:15:06.361Z,8.18
2024-05-09T14:17:08.811Z,5.30
2024-05-09T14:19:11.281Z,8.00
2024-05-09T14:21:13.598Z,5.97
2024-05-09T14:23:18.115Z,7.85
2024-05-09T14:25:20.347Z,4.90
2024-05-09T14:27:22.678Z,5.82
2024-05-09T14:29:24.824Z,8.77
2024-05-09T14:31:27.234Z,5.95
2024-05-09T14:33:30.891Z,7.55
2024-05-09T14:35:33.211Z,6.68
2024-05-09T14:37:37.886Z,7.78
2024-05-09T14:39:41.980Z,6.07
2024-05-09T14:41:44.162Z,9.10
2024-05-09T14:43:46.467Z,7.90
2024-05-09T14:45:48.803Z,6.22
2024-05-09T14:47:51.600Z,7.95
2024-05-09T14:49:53.967Z,7.85
2024-05-09T14:51:56.394Z,7.20
2024-05-09T14:53:58.559Z,8.93
2024-05-09T14:56:00.790Z,12.05
2024-05-09T14:58:03.349Z,7.50
2024-05-09T15:00:11.392Z,8.88
2024-05-09T15:02:19.451Z,12.50
2024-05-09T15:04:22.154Z,7.22
2024-05-09T15:06:24.461Z,5.97
2024-05-09T15:08:26.726Z,8.07
2024-05-09T15:10:34.706Z,7.45
2024-05-09T15:12:38.711Z,6.45
2024-05-09T15:14:41.295Z,8.38
2024-05-09T15:16:43.514Z,6.47
2024-05-09T15:18:45.770Z,6.45
2024-05-09T15:20:48.548Z,6.13
2024-05-09T15:22:50.891Z,9.38
2024-05-09T15:24:54.585Z,22.17
2024-05-09T15:26:56.806Z,7.05
2024-05-09T15:28:59.508Z,10.43
2024-05-09T15:31:01.937Z,8.68
2024-05-09T15:33:04.854Z,8.07
2024-05-09T15:35:10.432Z,5.30
2024-05-09T15:37:13.722Z,5.22
2024-05-09T15:39:15.985Z,7.82
2024-05-09T15:41:18.302Z,10.05
2024-05-09T15:43:20.667Z,5.30
2024-05-09T15:45:22.775Z,13.10
2024-05-09T15:47:24.899Z,12.40
2024-05-09T15:49:30.061Z,10.68
2024-05-09T15:51:33.007Z,15.18
2024-05-09T15:54:12.592Z,5.70
2024-05-09T15:56:15.000Z,9.13
2024-05-09T15:58:18.504Z,5.85
2024-05-09T16:00:29.094Z,7.15
2024-05-09T16:02:39.296Z,7.20
2024-05-09T16:04:41.574Z,6.47
2024-05-09T16:06:48.189Z,6.68
2024-05-09T16:08:50.403Z,4.20
2024-05-09T16:10:52.613Z,5.18
2024-05-09T16:12:55.107Z,7.25
2024-05-09T16:14:57.182Z,5.00
2024-05-09T16:16:59.576Z,6.97
2024-05-09T16:19:01.970Z,14.95
2024-05-09T16:21:05.596Z,13.45
2024-05-09T16:23:08.798Z,6.70
2024-05-09T16:25:11.436Z,9.73
2024-05-09T16:27:13.673Z,7.55
2024-05-09T16:29:15.970Z,7.88
2024-05-09T16:31:18.108Z,5.47
2024-05-09T16:33:25.823Z,13.57
2024-05-09T16:35:28.313Z,11.75
2024-05-09T16:37:30.450Z,17.60
2024-05-09T16:39:32.862Z,16.42
2024-05-09T16:41:35.055Z,8.75
2024-05-09T16:43:37.207Z,5.78
2024-05-09T16:45:44.983Z,11.10
2024-05-09T16:47:47.493Z,8.68
2024-05-09T16:49:49.730Z,6.93
2024-05-09T16:51:51.951Z,12.32
2024-05-09T16:53:54.158Z,8.85
2024-05-09T16:55:59.301Z,8.82
2024-05-09T17:00:07.344Z,9.77
2024-05-09T17:02:15.317Z,9.65
2024-05-09T17:04:17.959Z,5.68
2024-05-09T17:06:20.188Z,8.50
2024-05-09T17:08:22.406Z,9.55
2024-05-09T17:10:31.345Z,8.35
2024-05-09T17:12:35.612Z,9.55
2024-05-09T17:14:37.800Z,8.35
2024-05-09T17:16:40.263Z,9.70
2024-05-09T17:18:42.479Z,7.82
2024-05-09T17:20:44.646Z,8.07
2024-05-09T17:22:46.983Z,7.40
2024-05-09T17:24:49.147Z,11.95
2024-05-09T17:26:53.042Z,9.07
2024-05-09T17:28:55.313Z,9.05
2024-05-09T17:30:58.270Z,8.63
2024-05-09T17:33:00.764Z,6.32
2024-05-09T17:35:05.430Z,9.23
2024-05-09T17:37:07.704Z,6.80
2024-05-09T17:39:09.825Z,6.30
2024-05-09T17:41:11.919Z,8.00
2024-05-09T17:43:14.015Z,7.20
2024-05-09T17:45:16.469Z,7.57
2024-05-09T17:47:19.046Z,7.38
2024-05-09T17:49:21.203Z,6.82
2024-05-09T17:51:23.410Z,6.70
2024-05-09T17:53:25.824Z,7.85
2024-05-09T17:55:28.772Z,7.05
2024-05-09T17:57:31.209Z,5.78
2024-05-09T17:59:33.665Z,8.50
2024-05-09T18:01:35.984Z,5.95
2024-05-09T18:03:39.666Z,7.28
2024-05-09T18:05:43.667Z,5.82
2024-05-09T18:07:46.829Z,6.75
2024-05-09T18:09:48.953Z,11.25
2024-05-09T18:11:51.169Z,12.68
2024-05-09T18:13:54.402Z,12.00
2024-05-09T18:15:58.841Z,7.85
2024-05-09T18:18:01.702Z,10.23
2024-05-09T18:20:05.784Z,10.23
2024-05-09T18:22:07.993Z,8.10
2024-05-09T18:24:10.526Z,7.25
2024-05-09T18:26:13.164Z,9.52
2024-05-09T18:28:17.077Z,9.95
2024-05-09T18:30:27.418Z,6.90
2024-05-09T18:32:34.014Z,7.75
2024-05-09T18:34:36.193Z,10.90
2024-05-09T18:36:38.898Z,7.93
2024-05-09T18:38:41.030Z,5.05
2024-05-09T18:40:45.926Z,7.50
2024-05-09T18:42:50.561Z,8.55
2024-05-09T18:44:52.803Z,6.68
2024-05-09T18:46:55.182Z,6.03
2024-05-09T18:48:58.184Z,7.10
2024-05-09T18:51:00.503Z,4.57
2024-05-09T18:53:03.020Z,10.25
2024-05-09T18:55:05.773Z,5.30
2024-05-09T18:57:08.721Z,6.95
2024-05-09T18:59:10.966Z,6.07
2024-05-09T19:01:13.608Z,9.52
2024-05-09T19:03:16.238Z,5.63
2024-05-09T19:05:18.632Z,7.07
2024-05-09T19:07:20.831Z,5.20
2024-05-09T19:09:22.897Z,6.95
2024-05-09T19:11:24.983Z,5.22
2024-05-09T19:13:27.449Z,8.32
2024-05-09T19:15:29.667Z,5.68
2024-05-09T19:17:31.940Z,5.18
2024-05-09T19:19:34.407Z,7.75
2024-05-09T19:21:37.939Z,6.70
2024-05-09T19:23:47.167Z,7.93
2024-05-09T19:25:54.209Z,4.93
2024-05-09T19:27:56.526Z,4.78
2024-05-09T19:29:58.791Z,4.72
2024-05-09T19:32:01.385Z,8.88
2024-05-09T19:34:03.573Z,8.27
2024-05-09T19:36:07.157Z,4.07
2024-05-09T19:38:09.471Z,6.28
2024-05-09T19:40:18.288Z,7.15
2024-05-09T19:42:27.801Z,6.10
2024-05-09T19:44:29.924Z,8.00
2024-05-09T19:46:32.098Z,5.32
2024-05-09T19:48:34.666Z,7.30
2024-05-09T19:50:42.382Z,7.03
2024-05-09T19:52:46.515Z,7.50
2024-05-09T19:54:50.127Z,7.13
2024-05-09T19:56:52.418Z,7.70
2024-05-09T19:58:55.389Z,8.95
2024-05-09T20:00:57.517Z,5.32
2024-05-09T20:02:59.961Z,6.65
2024-05-09T20:05:03.750Z,6.72
2024-05-09T20:07:06.049Z,5.35
2024-05-09T20:09:08.297Z,7.65
2024-05-09T20:11:10.834Z,7.60
2024-05-09T20:13:14.037Z,7.78
2024-05-09T20:15:16.399Z,6.63
2024-05-09T20:17:18.687Z,8.38
2024-05-09T20:19:21.381Z,5.57
2024-05-09T20:21:24.881Z,6.95
2024-05-09T20:23:27.334Z,6.90
2024-05-09T20:25:29.368Z,5.90
2024-05-09T20:27:31.582Z,10.18
2024-05-09T20:29:33.884Z,7.45
2024-05-09T20:31:36.084Z,6.45
2024-05-09T20:33:39.678Z,6.53
2024-05-09T20:35:41.953Z,6.35
2024-05-09T20:37:44.063Z,6.63
2024-05-09T20:39:46.254Z,7.95
2024-05-09T20:41:48.620Z,6.10
2024-05-09T20:43:50.765Z,6.78
2024-05-09T20:45:53.046Z,8.55
2024-05-09T20:47:55.592Z,6.53
2024-05-09T20:49:57.837Z,5.10
2024-05-09T20:52:00.046Z,5.22
2024-05-09T20:54:02.123Z,5.10
2024-05-09T20:56:04.433Z,5.55
2024-05-09T20:58:06.678Z,6.68
2024-05-09T21:00:15.027Z,5.78
2024-05-09T21:02:21.145Z,6.65
2024-05-09T21:04:23.749Z,6.32
2024-05-09T21:06:26.025Z,5.47
2024-05-09T21:08:28.202Z,5.90
2024-05-09T21:10:33.258Z,5.88
2024-05-09T21:12:36.467Z,5.63
2024-05-09T21:14:39.024Z,7.25
2024-05-09T21:16:41.374Z,6.68
2024-05-09T21:18:43.966Z,6.72
2024-05-09T21:20:46.161Z,6.15
2024-05-09T21:22:48.299Z,5.68
2024-05-09T21:24:50.860Z,6.15
2024-05-09T21:26:53.409Z,5.78
2024-05-09T21:28:55.637Z,6.97
2024-05-09T21:30:57.758Z,7.70
2024-05-09T21:33:00.515Z,7.55
2024-05-09T21:35:02.679Z,8.30
2024-05-09T21:37:05.113Z,6.10
2024-05-09T21:39:10.492Z,4.97
2024-05-09T21:43:15.049Z,9.02
2024-05-09T21:45:17.266Z,5.00
2024-05-09T21:47:19.791Z,8.05
2024-05-09T21:49:22.288Z,4.85
2024-05-09T21:51:25.319Z,8.40
2024-05-09T21:53:27.464Z,7.00
2024-05-09T21:55:30.213Z,6.47
2024-05-09T21:57:32.460Z,5.75
2024-05-09T21:59:34.751Z,9.00
2024-05-09T22:01:36.976Z,6.53
2024-05-09T22:03:39.321Z,9.50
2024-05-09T22:05:43.808Z,6.55
2024-05-09T22:07:45.950Z,6.55
2024-05-09T22:09:48.151Z,8.40
2024-05-09T22:11:52.578Z,8.15
2024-05-09T22:15:57.519Z,6.78
2024-05-09T22:17:59.736Z,9.57
2024-05-09T22:20:01.879Z,10.30
2024-05-09T22:22:04.236Z,11.00
2024-05-09T22:24:06.791Z,6.63
2024-05-09T22:26:09.191Z,10.38
2024-05-09T22:28:16.380Z,9.18
2024-05-09T22:30:23.997Z,8.32
2024-05-09T22:32:33.740Z,6.85
2024-05-09T22:34:36.114Z,7.05
2024-05-09T22:36:38.337Z,8.45
2024-05-09T22:38:40.442Z,8.43
2024-05-09T22:40:48.018Z,9.55
2024-05-09T22:42:52.094Z,9.15
2024-05-09T22:44:54.351Z,9.13
2024-05-09T22:46:56.651Z,7.50
2024-05-09T22:48:59.012Z,11.73
2024-05-09T22:51:01.211Z,9.75
2024-05-09T22:53:03.892Z,10.55
2024-05-09T22:55:06.586Z,9.63
2024-05-09T22:57:08.965Z,11.10
2024-05-09T22:59:11.335Z,7.30
2024-05-09T23:01:16.542Z,8.35
2024-05-09T23:05:24.375Z,8.97
2024-05-09T23:07:27.146Z,7.75
2024-05-09T23:09:29.208Z,12.10
2024-05-09T23:11:31.312Z,9.02
2024-05-09T23:13:36.806Z,10.30
2024-05-09T23:15:39.257Z,11.98
2024-05-09T23:17:41.718Z,8.90
2024-05-09T23:19:44.361Z,10.35
2024-05-09T23:21:46.601Z,6.63
2024-05-09T23:23:48.729Z,11.73
2024-05-09T23:25:50.788Z,12.60
2024-05-09T23:27:52.893Z,9.02
2024-05-09T23:29:55.013Z,10.05
2024-05-09T23:31:57.341Z,9.38
2024-05-09T23:33:59.640Z,7.28
2024-05-09T23:36:01.896Z,10.63
2024-05-09T23:38:05.029Z,7.57
2024-05-09T23:40:09.649Z,6.43
2024-05-09T23:42:11.928Z,9.50
2024-05-09T23:44:14.050Z,8.32
2024-05-09T23:46:16.172Z,8.02
2024-05-09T23:48:18.578Z,10.73
2024-05-09T23:50:26.529Z,8.65
2024-05-09T23:52:36.316Z,13.38
2024-05-09T23:54:38.547Z,12.68
2024-05-09T23:56:40.647Z,10.05
2024-05-09T23:58:43.284Z,10.07
